Al Qaysumah, Saudi Arabia

7:42 AM AST on October 22, 2014 (GMT +0300)
Hafr Al-Batin | Change Station
CLOSE
Current Station
Airport
Location: Al Qaysumah,
Elevation: 1175 ft
Nearby Weather Stations

Elev 1175 ft 28.32 °N, 46.13 °E | Updated 42 minutes ago

Clear
Clear
64 °F
Feels Like 64 °F
N
0
Wind Variable Wind from North

Today
High -- | Low -- °F
--% Chance of Precip.
Yesterday
High -- | Low -- °F
Precip. -- in
6:00 AM 5:19 PM
Waning Crescent, 3% visible
Pressure 30.12 in
Visibility -9999.0 miles
Clouds
Dew Point 57 °F
Humidity 77%
Rainfall 0.00 in
Snow Depth Not available.
UV Not available.
Pollen Not available.
Air Quality Not available.
Flu Activity Not available.
METAR OEPA 220400Z 00000KT CAVOK 18/14 Q1020 NOSIG

More Conditions Fewer Conditions

Pressure 30.12 in
Visibility -9999.0 miles
Clouds
Dew Point 57 °F
Humidity 77%
Rainfall 0.00 in
Snow Depth Not available.
UV Not available.
Pollen Not available.
Air Quality Not available.
Flu Activity Not available.
METAR OEPA 220400Z 00000KT CAVOK 18/14 Q1020 NOSIG

More Conditions Fewer Conditions

10-Day Weather Forecast

Almanac

Astronomy

Oct. 22, 2014 Rise Set
Actual Time 6:00 AM AST 5:19 PM AST
Civil Twilight 5:36 AM AST 5:43 PM AST
Nautical Twilight 5:08 AM AST 6:10 PM AST
Astronomical Twilight 4:41 AM AST 6:38 PM AST
Moon 4:27 AM AST 4:27 PM AST
Length of Visible Light 12h 07m
Length of Day
11h 19m
Tomorrow will be 1m 34s shorter.
Waning Crescent, 3% of the Moon is Illuminated
Today
Waning Crescent
Oct 23
New
Oct 30
First Quarter
Nov 6
Full
Nov 14
Last Quarter

Yesterday's Extremes

Country Highs Country Lows

Community

WunderPhotos

Upload Photos

1,763,882 photos uploaded!

Nearby

Snow Depth

Not available.

Earthquake Activity

City Distance Mag. Time & Date
No recent earthquake activity has been reported nearby.
Minimum magnitude displayed is 2.5.

Coastal Water Temperatures

Place Temperature
No Stations Reporting

Nearby Weather Stations